Time;durP1;ratioP1;P1;durP2;ratioP2;P2;SDS_P1;SDS_P2;PMS_P1;PMS_P2;Temp;Humidity;BMP_temperature;BMP_pressure;BME280_temperature;BME280_humidity;BME280_pressure;Samples;Min_cycle;Max_cycle;Signal;HPM_P1;HPM_P2
2022/10/21 00:00:50;;;;;;;26.35;17.98;;;11.80;99.90;;;;;;5006990;28;20045;-80
2022/10/21 00:03:16;;;;;;;25.00;18.67;;;11.80;99.90;;;;;;5007493;28;20046;-79
2022/10/21 00:05:42;;;;;;;25.33;17.80;;;11.80;99.90;;;;;;5005702;28;20069;-80
2022/10/21 00:08:08;;;;;;;22.75;17.70;;;11.80;99.90;;;;;;4999083;28;20108;-80
2022/10/21 00:10:33;;;;;;;27.27;18.58;;;11.70;99.90;;;;;;5008781;28;20048;-80
2022/10/21 00:12:59;;;;;;;28.42;18.85;;;12.50;99.90;;;;;;4990188;28;20042;-80
2022/10/21 00:15:24;;;;;;;30.10;20.27;;;11.80;99.90;;;;;;4987207;28;20082;-80
2022/10/21 00:17:50;;;;;;;25.85;18.60;;;11.80;99.90;;;;;;4991383;28;20037;-80
2022/10/21 00:20:16;;;;;;;23.75;18.40;;;12.90;99.90;;;;;;4990796;28;20056;-79
2022/10/21 00:22:42;;;;;;;23.23;19.58;;;11.80;99.90;;;;;;5005811;28;20641;-80
2022/10/21 00:25:08;;;;;;;21.92;17.38;;;11.80;99.90;;;;;;5007267;28;20164;-80
2022/10/21 00:27:34;;;;;;;24.55;19.38;;;11.80;99.90;;;;;;5007073;28;20112;-80
2022/10/21 00:29:59;;;;;;;21.30;17.63;;;11.80;99.90;;;;;;5006401;28;20497;-80
2022/10/21 00:32:25;;;;;;;23.88;17.05;;;11.80;99.90;;;;;;5005777;28;20073;-80
2022/10/21 00:34:51;;;;;;;24.85;17.25;;;11.80;99.90;;;;;;5008808;28;20068;-80
2022/10/21 00:37:16;;;;;;;22.40;16.70;;;11.80;99.90;;;;;;5006432;28;20040;-79
2022/10/21 00:39:43;;;;;;;25.05;18.88;;;11.80;99.90;;;;;;5008429;28;20477;-80
2022/10/21 00:42:18;;;;;;;23.50;17.67;;;11.80;99.90;;;;;;4988929;28;20078;-80
2022/10/21 00:45:03;;;;;;;25.35;17.67;;;11.70;99.90;;;;;;5001723;28;20087;-79
2022/10/21 00:47:29;;;;;;;25.52;19.05;;;11.70;99.90;;;;;;5006885;28;20038;-79
2022/10/21 00:50:02;;;;;;;29.85;20.17;;;11.70;99.90;;;;;;5006536;28;20045;-79
2022/10/21 00:52:30;;;;;;;25.48;19.17;;;11.70;99.90;;;;;;4989178;28;20050;-79
2022/10/21 00:54:58;;;;;;;26.70;17.58;;;11.80;99.90;;;;;;5008325;28;20053;-79
2022/10/21 00:57:25;;;;;;;24.95;18.90;;;12.60;99.90;;;;;;5007638;28;20053;-80
2022/10/21 00:59:57;;;;;;;26.10;19.42;;;11.70;99.90;;;;;;5008530;28;20572;-80
2022/10/21 01:02:22;;;;;;;29.10;19.15;;;11.70;99.90;;;;;;5007573;28;20034;-79
2022/10/21 01:04:52;;;;;;;29.13;19.48;;;11.70;99.90;;;;;;5008045;28;20049;-79
2022/10/21 01:07:18;;;;;;;23.52;18.30;;;11.70;99.90;;;;;;5008461;28;20087;-79
2022/10/21 01:09:44;;;;;;;32.50;18.63;;;11.70;99.90;;;;;;5006611;28;20042;-79
2022/10/21 01:12:33;;;;;;;26.40;18.38;;;11.70;99.90;;;;;;4997261;28;20041;-79
2022/10/21 01:15:09;;;;;;;25.75;19.02;;;11.70;99.90;;;;;;5001259;28;20049;-79
2022/10/21 01:17:46;;;;;;;26.17;19.30;;;11.70;99.90;;;;;;5006587;28;20738;-79
2022/10/21 01:20:18;;;;;;;26.45;19.10;;;11.70;99.90;;;;;;5007434;28;20168;-79
2022/10/21 01:22:44;;;;;;;23.52;19.33;;;11.70;99.90;;;;;;5014399;28;20053;-79
2022/10/21 01:25:43;;;;;;;26.40;19.27;;;11.70;99.90;;;;;;5009304;28;20049;-80
2022/10/21 01:28:59;;;;;;;27.65;18.83;;;11.70;99.90;;;;;;5005524;28;20042;-79
2022/10/21 01:31:50;;;;;;;25.77;18.30;;;11.70;99.90;;;;;;4975162;28;20054;-79
2022/10/21 01:34:38;;;;;;;28.98;18.00;;;11.70;99.90;;;;;;5003112;28;20042;-79
2022/10/21 01:37:20;;;;;;;26.77;17.75;;;11.80;99.90;;;;;;5010082;28;20050;-79
2022/10/21 01:39:54;;;;;;;31.75;18.30;;;11.60;99.90;;;;;;5000860;28;20045;-79
2022/10/21 01:42:41;;;;;;;25.92;18.05;;;11.70;99.90;;;;;;5010073;28;20604;-79
2022/10/21 01:45:17;;;;;;;25.40;18.77;;;11.60;99.90;;;;;;5010261;28;20468;-79
2022/10/21 01:47:48;;;;;;;24.52;17.67;;;11.60;99.90;;;;;;5001886;28;20082;-79
2022/10/21 01:50:18;;;;;;;25.40;18.48;;;10.40;99.90;;;;;;4994097;28;20141;-79
2022/10/21 01:52:48;;;;;;;28.80;17.20;;;11.70;99.90;;;;;;5009032;28;20058;-79
2022/10/21 01:55:19;;;;;;;27.60;17.83;;;12.20;99.90;;;;;;5009486;28;20046;-79
2022/10/21 01:57:50;;;;;;;30.23;19.13;;;11.60;99.90;;;;;;5007536;28;20034;-79
2022/10/21 02:00:16;;;;;;;25.35;18.70;;;11.70;99.90;;;;;;5009777;28;20042;-79
2022/10/21 02:02:46;;;;;;;30.63;20.48;;;11.70;99.90;;;;;;5009586;28;20045;-79
2022/10/21 02:05:18;;;;;;;29.27;19.40;;;11.70;99.90;;;;;;5009831;28;20381;-79
2022/10/21 02:07:44;;;;;;;25.63;18.60;;;11.70;99.90;;;;;;5006397;28;20034;-79
2022/10/21 02:10:10;;;;;;;26.67;18.23;;;11.70;99.90;;;;;;5009683;28;20045;-79
2022/10/21 02:12:38;;;;;;;28.70;18.80;;;11.90;99.90;;;;;;5009301;28;20072;-79
2022/10/21 02:15:09;;;;;;;24.27;17.45;;;11.70;99.90;;;;;;5007189;28;20030;-79
2022/10/21 02:17:41;;;;;;;29.48;19.45;;;11.70;99.90;;;;;;4990928;28;20054;-79
2022/10/21 02:20:10;;;;;;;29.35;19.88;;;11.80;99.90;;;;;;5009431;28;20038;-79
2022/10/21 02:22:37;;;;;;;30.15;20.38;;;11.80;99.90;;;;;;5007558;28;20042;-79
2022/10/21 02:25:25;;;;;;;23.23;19.55;;;12.40;99.90;;;;;;5010784;28;20073;-80
2022/10/21 02:27:52;;;;;;;29.40;19.27;;;11.80;99.90;;;;;;5001180;28;20037;-80
2022/10/21 02:30:17;;;;;;;26.63;19.60;;;12.00;99.90;;;;;;5008659;28;20049;-80
2022/10/21 02:33:15;;;;;;;27.88;19.90;;;12.80;99.90;;;;;;5008879;28;20049;-80
2022/10/21 02:36:05;;;;;;;32.38;19.52;;;11.90;99.90;;;;;;4999751;28;20497;-80
2022/10/21 02:38:37;;;;;;;31.80;22.23;;;12.00;99.90;;;;;;5007797;28;20053;-78
2022/10/21 02:41:08;;;;;;;32.53;20.55;;;12.10;99.90;;;;;;5008860;28;20056;-79
2022/10/21 02:43:42;;;;;;;33.38;20.92;;;12.10;99.90;;;;;;5008086;28;20508;-80
2022/10/21 02:46:11;;;;;;;32.63;21.05;;;13.00;99.90;;;;;;5008539;28;20136;-81
2022/10/21 02:48:39;;;;;;;43.45;20.38;;;12.10;99.90;;;;;;5007188;28;20050;-83
2022/10/21 02:51:06;;;;;;;30.52;18.92;;;12.50;99.90;;;;;;5002492;28;20088;-81
2022/10/21 02:53:33;;;;;;;33.97;20.42;;;12.30;99.90;;;;;;5008505;28;20057;-83
2022/10/21 02:55:59;;;;;;;27.58;18.52;;;13.60;99.90;;;;;;5008600;28;20034;-81
2022/10/21 02:58:25;;;;;;;35.28;19.65;;;12.20;99.90;;;;;;5007346;28;20045;-82
2022/10/21 03:00:51;;;;;;;35.55;20.30;;;12.30;99.90;;;;;;5009907;28;20091;-80
2022/10/21 03:03:17;;;;;;;39.65;23.83;;;12.40;99.90;;;;;;5008195;28;20045;-80
2022/10/21 03:05:42;;;;;;;33.10;22.25;;;12.40;99.90;;;;;;5008913;28;20060;-82
2022/10/21 03:08:08;;;;;;;27.67;19.75;;;13.40;99.90;;;;;;5009211;28;20034;-82
2022/10/21 03:10:33;;;;;;;33.13;21.02;;;13.00;99.90;;;;;;5008949;28;20046;-82
2022/10/21 03:12:59;;;;;;;29.08;20.23;;;13.20;99.90;;;;;;5009162;28;20446;-83
2022/10/21 03:15:25;;;;;;;33.78;22.63;;;12.40;99.90;;;;;;5002327;28;20061;-84
2022/10/21 03:17:50;;;;;;;32.45;22.38;;;12.40;99.90;;;;;;4990498;28;20088;-84
2022/10/21 03:20:17;;;;;;;38.47;23.88;;;12.40;99.90;;;;;;5008395;28;20466;-83
2022/10/21 03:22:45;;;;;;;41.95;22.20;;;12.30;99.90;;;;;;4991773;28;20045;-83
2022/10/21 03:25:11;;;;;;;30.33;20.90;;;12.30;99.90;;;;;;5008898;28;20084;-84
2022/10/21 03:27:37;;;;;;;28.33;19.95;;;12.30;99.90;;;;;;5007094;28;20485;-83
2022/10/21 03:30:04;;;;;;;34.97;21.73;;;12.40;99.90;;;;;;5009373;28;20080;-83
2022/10/21 03:32:30;;;;;;;71.88;30.92;;;12.30;99.90;;;;;;5004636;28;20096;-83
2022/10/21 03:34:55;;;;;;;33.78;20.08;;;12.30;99.90;;;;;;5008560;28;20046;-84
2022/10/21 03:37:21;;;;;;;27.67;19.98;;;12.30;99.90;;;;;;5008608;28;20072;-84
2022/10/21 03:39:46;;;;;;;26.58;19.45;;;12.30;99.90;;;;;;5006507;28;20046;-82
2022/10/21 03:42:12;;;;;;;29.10;21.35;;;12.30;99.90;;;;;;4991476;28;20042;-81
2022/10/21 03:44:38;;;;;;;36.53;21.40;;;12.30;99.90;;;;;;5008201;28;20121;-83
2022/10/21 03:47:04;;;;;;;34.00;21.00;;;12.30;99.90;;;;;;5005611;28;20473;-81
2022/10/21 03:49:29;;;;;;;28.10;21.23;;;12.30;99.90;;;;;;4991701;28;20042;-83
2022/10/21 03:51:55;;;;;;;26.75;19.92;;;12.30;99.90;;;;;;5007235;28;20092;-84
2022/10/21 03:54:20;;;;;;;32.05;21.70;;;12.20;99.90;;;;;;5007638;28;20132;-83
2022/10/21 03:56:46;;;;;;;29.65;20.63;;;12.30;99.90;;;;;;5008962;28;20048;-83
2022/10/21 03:59:12;;;;;;;29.42;20.75;;;12.30;99.90;;;;;;5008285;28;20389;-82
2022/10/21 04:01:37;;;;;;;28.40;18.75;;;13.40;99.90;;;;;;5006981;28;20506;-83
2022/10/21 04:04:03;;;;;;;26.98;19.00;;;12.50;99.90;;;;;;4990951;28;20046;-83
2022/10/21 04:06:29;;;;;;;27.08;20.23;;;12.30;99.90;;;;;;5007937;28;20042;-81
2022/10/21 04:08:54;;;;;;;25.65;19.13;;;12.20;99.90;;;;;;5007608;28;20083;-83
2022/10/21 04:11:20;;;;;;;28.33;20.15;;;12.90;99.90;;;;;;5009136;28;20038;-83
2022/10/21 04:13:46;;;;;;;25.75;19.13;;;13.30;99.90;;;;;;4986482;28;20056;-83
2022/10/21 04:16:15;;;;;;;22.60;18.38;;;12.20;99.90;;;;;;5007839;28;20126;-83
2022/10/21 04:18:41;;;;;;;31.23;21.58;;;12.20;99.90;;;;;;5006298;28;20045;-83
2022/10/21 04:21:10;;;;;;;26.85;18.92;;;12.20;99.90;;;;;;5007200;28;20193;-84
2022/10/21 04:23:36;;;;;;;30.35;21.30;;;12.20;99.90;;;;;;5001438;28;20133;-82
2022/10/21 04:26:05;;;;;;;24.92;18.90;;;12.20;99.90;;;;;;5001582;28;20103;-83
2022/10/21 04:28:31;;;;;;;35.38;20.73;;;13.00;99.90;;;;;;5007320;28;20125;-83
2022/10/21 04:30:57;;;;;;;23.10;19.20;;;12.20;99.90;;;;;;5007436;28;20484;-84
2022/10/21 04:33:23;;;;;;;29.30;19.90;;;12.20;99.90;;;;;;5008796;28;20046;-84
2022/10/21 04:35:49;;;;;;;25.10;19.10;;;12.20;99.90;;;;;;5008459;28;20042;-82
2022/10/21 04:38:14;;;;;;;23.73;19.25;;;12.20;99.90;;;;;;5005627;28;20424;-81
2022/10/21 04:40:40;;;;;;;24.58;19.60;;;13.00;99.90;;;;;;4990741;28;20057;-82
2022/10/21 04:43:06;;;;;;;29.00;18.13;;;12.20;99.90;;;;;;4990048;28;20038;-80
2022/10/21 04:45:32;;;;;;;23.48;17.88;;;12.10;99.90;;;;;;5007243;28;20046;-80
2022/10/21 04:47:57;;;;;;;26.13;19.42;;;12.10;99.90;;;;;;5006049;28;20034;-83
2022/10/21 04:50:23;;;;;;;23.80;18.00;;;12.50;99.90;;;;;;5006923;28;20058;-80
2022/10/21 04:52:49;;;;;;;28.45;19.13;;;12.10;99.90;;;;;;5020483;28;20555;-82
2022/10/21 04:55:15;;;;;;;24.60;19.25;;;12.10;99.90;;;;;;5005376;28;20050;-80
2022/10/21 04:57:41;;;;;;;28.33;19.13;;;12.10;99.90;;;;;;4992619;28;20401;-80
2022/10/21 05:00:08;;;;;;;27.42;20.65;;;12.10;99.90;;;;;;5031404;28;20045;-81
2022/10/21 05:02:34;;;;;;;23.50;19.52;;;12.10;99.90;;;;;;5013955;28;20099;-82
2022/10/21 05:04:59;;;;;;;28.15;21.20;;;12.10;99.90;;;;;;5030830;28;20038;-81
2022/10/21 05:07:25;;;;;;;25.90;21.08;;;12.10;99.90;;;;;;4996526;28;20037;-83
2022/10/21 05:09:50;;;;;;;26.42;19.95;;;12.10;99.90;;;;;;5012648;28;20041;-82
2022/10/21 05:12:16;;;;;;;28.10;20.67;;;12.10;99.90;;;;;;5013128;28;20128;-83
2022/10/21 05:14:42;;;;;;;25.83;18.60;;;12.50;99.90;;;;;;5009284;28;20049;-82
2022/10/21 05:17:07;;;;;;;28.58;20.35;;;12.10;99.90;;;;;;5013456;28;20172;-83
2022/10/21 05:19:33;;;;;;;24.83;19.70;;;12.10;99.90;;;;;;4995315;28;20416;-83
2022/10/21 05:21:59;;;;;;;33.58;22.65;;;12.60;99.90;;;;;;5013283;28;20045;-82
2022/10/21 05:24:24;;;;;;;29.88;20.85;;;12.10;99.90;;;;;;5013605;28;20041;-82
2022/10/21 05:26:51;;;;;;;31.45;19.58;;;12.10;99.90;;;;;;5031728;28;20037;-82
2022/10/21 05:29:16;;;;;;;30.67;21.67;;;12.20;99.90;;;;;;4996982;28;20075;-83
2022/10/21 05:31:43;;;;;;;32.92;21.27;;;12.10;99.90;;;;;;5012300;28;20041;-82
2022/10/21 05:34:08;;;;;;;36.20;20.92;;;12.20;99.90;;;;;;5013718;28;20053;-83
2022/10/21 05:36:34;;;;;;;33.65;21.88;;;12.50;99.90;;;;;;5013338;28;20057;-83
2022/10/21 05:39:00;;;;;;;34.00;22.73;;;12.20;99.90;;;;;;5027789;28;20041;-81
2022/10/21 05:41:25;;;;;;;54.22;28.67;;;12.20;99.90;;;;;;5031179;28;20080;-83
2022/10/21 05:43:51;;;;;;;30.63;21.48;;;12.20;99.90;;;;;;5013641;28;20089;-81
2022/10/21 05:46:17;;;;;;;35.65;21.85;;;12.40;99.90;;;;;;5012409;28;20397;-82
2022/10/21 05:48:42;;;;;;;42.05;24.98;;;12.20;99.90;;;;;;4996131;28;20117;-81
2022/10/21 05:51:08;;;;;;;33.50;23.50;;;12.20;99.90;;;;;;5013104;28;20049;-82
2022/10/21 05:53:34;;;;;;;32.50;23.73;;;12.30;99.90;;;;;;5030376;28;20536;-81
2022/10/21 05:56:03;;;;;;;34.65;23.05;;;12.30;99.90;;;;;;5031117;28;20045;-81
2022/10/21 05:58:30;;;;;;;65.53;28.75;;;13.50;99.90;;;;;;5030056;28;20034;-82
2022/10/21 06:00:57;;;;;;;37.60;22.00;;;12.20;99.90;;;;;;5012624;28;20244;-81
2022/10/21 06:03:28;;;;;;;31.90;22.13;;;12.50;99.90;;;;;;4996852;28;20049;-81
2022/10/21 06:05:57;;;;;;;35.67;23.85;;;13.60;99.90;;;;;;5012747;28;20043;-80
2022/10/21 06:08:22;;;;;;;30.55;24.27;;;12.30;99.90;;;;;;4995524;28;20069;-81
2022/10/21 06:10:48;;;;;;;33.33;24.25;;;12.20;99.90;;;;;;5029370;28;20072;-80
2022/10/21 06:13:14;;;;;;;36.08;23.42;;;12.30;99.90;;;;;;5009621;28;20049;-83
2022/10/21 06:15:39;;;;;;;38.75;24.27;;;12.90;99.90;;;;;;5027021;28;20140;-83
2022/10/21 06:18:05;;;;;;;43.05;25.85;;;13.30;99.90;;;;;;5011609;28;20045;-83
2022/10/21 06:20:31;;;;;;;42.28;25.73;;;12.60;99.90;;;;;;5012008;28;20053;-83
2022/10/21 06:22:59;;;;;;;38.47;27.50;;;13.20;99.90;;;;;;5030384;28;20504;-83
2022/10/21 06:25:25;;;;;;;41.92;26.67;;;12.40;99.90;;;;;;4995668;28;20037;-81
2022/10/21 06:27:52;;;;;;;40.28;26.27;;;12.40;99.90;;;;;;5010686;28;20177;-80
2022/10/21 06:30:17;;;;;;;41.55;25.63;;;12.60;99.90;;;;;;5011934;28;20041;-81
2022/10/21 06:32:43;;;;;;;38.30;25.58;;;12.40;99.90;;;;;;5029757;28;20370;-80
2022/10/21 06:35:08;;;;;;;37.10;25.63;;;12.40;99.90;;;;;;4994806;28;20116;-81
2022/10/21 06:37:34;;;;;;;37.53;25.27;;;13.10;99.90;;;;;;4995313;28;20041;-82
2022/10/21 06:40:00;;;;;;;38.92;25.52;;;12.40;99.90;;;;;;5010881;28;20408;-82
2022/10/21 06:42:25;;;;;;;36.50;25.33;;;12.40;99.90;;;;;;5010974;28;20120;-83
2022/10/21 06:44:51;;;;;;;47.47;27.35;;;12.40;99.90;;;;;;5012456;28;20092;-79
2022/10/21 06:47:17;;;;;;;41.15;24.98;;;13.00;99.90;;;;;;5011266;28;20037;-78
2022/10/21 06:49:42;;;;;;;39.60;25.40;;;12.40;99.90;;;;;;4316198;28;10000710;-78
2022/10/21 06:52:08;;;;;;;40.10;25.77;;;12.40;99.90;;;;;;4993389;28;20611;-78
2022/10/21 06:54:33;;;;;;;37.25;24.50;;;12.40;99.90;;;;;;4999813;28;20089;-78
2022/10/21 06:57:02;;;;;;;43.90;26.58;;;12.40;99.90;;;;;;5026465;28;20046;-78
2022/10/21 06:59:28;;;;;;;33.95;25.92;;;12.40;99.90;;;;;;5009839;28;20171;-81
2022/10/21 07:01:53;;;;;;;35.20;24.92;;;12.40;99.90;;;;;;4986692;28;20177;-81
2022/10/21 07:04:19;;;;;;;34.28;24.45;;;12.60;99.90;;;;;;4993328;28;20045;-82
2022/10/21 07:06:45;;;;;;;35.88;24.67;;;13.50;99.90;;;;;;5006543;28;20504;-81
2022/10/21 07:09:11;;;;;;;39.08;25.13;;;12.50;99.90;;;;;;4987412;28;20111;-84
2022/10/21 07:11:40;;;;;;;40.63;26.08;;;12.50;99.90;;;;;;4994621;28;20037;-86
2022/10/21 07:14:06;;;;;;;35.08;24.80;;;12.50;99.90;;;;;;5005352;28;20087;-86
2022/10/21 07:16:35;;;;;;;33.08;24.55;;;13.00;99.90;;;;;;4994664;28;20104;-85
2022/10/21 07:19:02;;;;;;;36.38;24.38;;;12.60;99.90;;;;;;5010513;28;20061;-86
2022/10/21 07:21:29;;;;;;;31.77;22.55;;;13.60;99.90;;;;;;5010217;28;20137;-80
2022/10/21 07:23:56;;;;;;;38.30;25.00;;;12.50;99.90;;;;;;5010836;28;20112;-82
2022/10/21 07:26:23;;;;;;;34.10;22.92;;;13.70;99.90;;;;;;5011630;28;20041;-82
2022/10/21 07:28:49;;;;;;;38.88;24.17;;;12.50;99.90;;;;;;5028326;28;20041;-83
2022/10/21 07:31:22;;;;;;;30.92;23.58;;;12.50;99.90;;;;;;5028061;28;20111;-82
2022/10/21 07:33:48;;;;;;;31.17;23.98;;;12.40;99.90;;;;;;5028918;28;20068;-86
2022/10/21 07:36:17;;;;;;;35.38;23.15;;;12.80;99.90;;;;;;5010924;28;20532;-85
2022/10/21 07:38:45;;;;;;;35.00;23.70;;;13.50;99.90;;;;;;5008906;28;20633;-86
2022/10/21 07:41:23;;;;;;;32.33;23.17;;;12.50;99.90;;;;;;5028927;28;20029;-85
2022/10/21 07:43:50;;;;;;;34.22;22.42;;;12.50;99.90;;;;;;5011604;28;20057;-87
2022/10/21 07:46:17;;;;;;;32.03;22.23;;;13.80;99.90;;;;;;4994145;28;20038;-91
2022/10/21 07:48:42;;;;;;;38.08;23.73;;;13.50;99.90;;;;;;4994080;28;20045;-88
2022/10/21 07:51:12;;;;;;;32.33;21.08;;;12.40;99.90;;;;;;5027269;28;20089;-90
2022/10/21 07:53:38;;;;;;;30.70;21.48;;;13.30;99.90;;;;;;5030565;28;20033;-91
2022/10/21 07:56:07;;;;;;;29.73;20.70;;;12.50;99.90;;;;;;5012296;28;20075;-87
2022/10/21 07:58:32;;;;;;;29.77;22.60;;;12.50;99.90;;;;;;5028861;28;20063;-91
2022/10/21 08:01:01;;;;;;;32.88;21.27;;;12.40;99.90;;;;;;5028490;28;20400;-87
2022/10/21 08:03:27;;;;;;;30.67;23.30;;;13.90;99.90;;;;;;5029016;28;20084;-89
2022/10/21 08:05:54;;;;;;;28.40;21.98;;;12.50;99.90;;;;;;5010462;28;20497;-86
2022/10/21 08:08:20;;;;;;;31.30;22.65;;;12.70;99.90;;;;;;5010905;28;20594;-91
2022/10/21 08:10:47;;;;;;;28.73;20.60;;;12.70;99.90;;;;;;5029176;28;20050;-91
2022/10/21 08:13:13;;;;;;;31.17;21.10;;;13.60;99.90;;;;;;5025867;28;20053;-92
2022/10/21 08:15:43;;;;;;;30.40;21.42;;;12.40;99.90;;;;;;5005977;28;20452;-91
2022/10/21 08:18:09;;;;;;;28.52;20.55;;;12.90;99.90;;;;;;4993396;28;20119;-88
2022/10/21 08:20:42;;;;;;;34.67;22.98;;;12.50;99.90;;;;;;5011205;28;20053;-90
2022/10/21 08:23:09;;;;;;;45.97;26.02;;;13.60;99.90;;;;;;5010952;28;20041;-86
2022/10/21 08:25:35;;;;;;;27.75;20.70;;;12.50;99.90;;;;;;5005466;28;20045;-82
2022/10/21 08:28:02;;;;;;;40.85;24.48;;;13.90;99.90;;;;;;5010103;28;20034;-83
2022/10/21 08:30:30;;;;;;;44.95;25.70;;;13.80;99.90;;;;;;5010203;28;20084;-81
2022/10/21 08:32:57;;;;;;;30.38;21.80;;;13.70;99.90;;;;;;5011091;28;20088;-81
2022/10/21 08:35:23;;;;;;;33.65;22.45;;;12.60;99.90;;;;;;5032794;28;20037;-89
2022/10/21 08:37:48;;;;;;;39.85;22.38;;;12.60;99.90;;;;;;5013165;28;20054;-87
2022/10/21 08:40:15;;;;;;;31.40;23.05;;;12.60;99.90;;;;;;5031290;28;20492;-82
2022/10/21 08:42:43;;;;;;;32.97;21.80;;;12.60;99.90;;;;;;5014835;28;20446;-89
2022/10/21 08:45:18;;;;;;;29.13;21.65;;;13.80;99.90;;;;;;5014622;28;20068;-88
2022/10/21 08:47:49;;;;;;;33.00;23.08;;;14.00;99.90;;;;;;5025025;28;20041;-86
2022/10/21 08:50:24;;;;;;;34.60;22.13;;;12.70;99.90;;;;;;5011388;28;20427;-89
2022/10/21 08:53:43;;;;;;;35.47;21.58;;;12.80;99.90;;;;;;4995272;28;20050;-89
2022/10/21 08:56:12;;;;;;;32.55;23.27;;;12.80;99.90;;;;;;4918677;29;20113;-89
2022/10/21 08:58:38;;;;;;;35.13;22.58;;;12.90;99.90;;;;;;5007379;28;20065;-89
2022/10/21 09:01:28;;;;;;;34.67;21.65;;;13.90;99.90;;;;;;5030908;28;20041;-86
2022/10/21 09:04:13;;;;;;;33.20;22.33;;;13.20;99.90;;;;;;4998285;28;20080;-88
2022/10/21 09:06:50;;;;;;;35.95;22.38;;;13.00;99.90;;;;;;5003184;28;20048;-85
2022/10/21 09:09:21;;;;;;;32.33;22.13;;;13.10;99.90;;;;;;5012690;28;20119;-89
2022/10/21 09:12:08;;;;;;;31.52;22.45;;;14.10;99.90;;;;;;5014641;28;20101;-86
2022/10/21 09:14:59;;;;;;;33.38;21.73;;;13.20;99.90;;;;;;5028938;28;20088;-90
2022/10/21 09:17:36;;;;;;;31.42;21.33;;;13.30;99.90;;;;;;5024338;28;20052;-87
2022/10/21 09:20:26;;;;;;;30.48;21.52;;;14.60;99.90;;;;;;4997493;28;20137;-88
2022/10/21 09:23:13;;;;;;;31.50;21.02;;;13.40;99.90;;;;;;4997645;28;20041;-82
2022/10/21 09:26:00;;;;;;;32.90;21.20;;;13.50;99.90;;;;;;5025372;28;20049;-83
2022/10/21 09:28:28;;;;;;;29.75;20.55;;;14.40;99.90;;;;;;4991723;28;20083;-81
2022/10/21 09:30:56;;;;;;;32.03;20.80;;;13.70;99.90;;;;;;5013826;28;20138;-80
2022/10/21 09:33:27;;;;;;;32.20;20.88;;;14.50;99.90;;;;;;5023579;28;20484;-85
2022/10/21 09:36:17;;;;;;;25.65;18.20;;;15.00;99.90;;;;;;4996449;28;20068;-86
2022/10/21 09:38:59;;;;;;;26.00;18.25;;;13.90;99.90;;;;;;4994368;28;20056;-89
2022/10/21 09:41:35;;;;;;;34.53;21.52;;;14.90;99.90;;;;;;5030373;28;20033;-87
2022/10/21 09:44:01;;;;;;;30.35;19.35;;;14.00;99.90;;;;;;5029950;28;20429;-89
2022/10/21 09:46:26;;;;;;;25.75;19.17;;;15.20;99.90;;;;;;5030848;28;20032;-88
2022/10/21 09:48:54;;;;;;;26.05;17.83;;;14.10;99.90;;;;;;5012841;28;20575;-87
2022/10/21 09:51:31;;;;;;;27.20;18.83;;;15.40;99.90;;;;;;4996280;28;20041;-89
2022/10/21 09:54:08;;;;;;;26.40;17.08;;;14.20;99.90;;;;;;5019156;28;20049;-89
2022/10/21 09:56:41;;;;;;;26.25;16.67;;;14.30;99.90;;;;;;5007841;28;20041;-91
2022/10/21 09:59:10;;;;;;;25.75;16.58;;;14.40;99.90;;;;;;5012496;28;20053;-87
2022/10/21 10:01:37;;;;;;;26.20;16.65;;;15.70;99.90;;;;;;5030958;28;20469;-90
2022/10/21 10:04:12;;;;;;;22.80;15.77;;;15.70;99.90;;;;;;5030700;28;20175;-89
2022/10/21 10:06:43;;;;;;;24.85;14.05;;;15.40;99.90;;;;;;5012474;28;20033;-89
2022/10/21 10:09:20;;;;;;;21.88;14.88;;;14.80;99.90;;;;;;5011831;28;20041;-89
2022/10/21 10:12:12;;;;;;;22.70;14.27;;;14.70;99.90;;;;;;5012411;28;20523;-89
2022/10/21 10:14:40;;;;;;;19.48;13.43;;;14.70;99.90;;;;;;5007750;28;20037;-89
2022/10/21 10:17:34;;;;;;;20.20;12.88;;;16.10;99.90;;;;;;5009927;28;20084;-87
2022/10/21 10:20:02;;;;;;;18.73;11.95;;;14.80;99.90;;;;;;4996403;28;20077;-88
2022/10/21 10:22:32;;;;;;;21.42;12.43;;;15.10;99.90;;;;;;5013892;28;20454;-88
2022/10/21 10:25:13;;;;;;;20.60;12.40;;;15.10;99.90;;;;;;5030881;28;20038;-84
2022/10/21 10:28:01;;;;;;;18.85;11.93;;;15.00;99.90;;;;;;5004724;28;20057;-82
2022/10/21 10:30:42;;;;;;;19.95;11.60;;;15.00;99.90;;;;;;4995238;28;20049;-81
2022/10/21 10:33:27;;;;;;;17.48;10.98;;;16.00;99.90;;;;;;4995600;28;20037;-81
2022/10/21 10:35:58;;;;;;;20.33;11.05;;;15.10;99.90;;;;;;5007436;28;20096;-81
2022/10/21 10:38:24;;;;;;;22.48;11.75;;;15.10;99.90;;;;;;5027644;28;20030;-86
2022/10/21 10:40:50;;;;;;;13.82;10.93;;;15.10;99.90;;;;;;5010744;28;20586;-85
2022/10/21 10:43:33;;;;;;;15.02;10.75;;;15.20;99.90;;;;;;5012304;28;20040;-87
2022/10/21 10:46:06;;;;;;;17.08;10.00;;;15.20;99.90;;;;;;5011527;28;20159;-86
2022/10/21 10:48:44;;;;;;;14.90;11.07;;;15.20;99.90;;;;;;4993955;28;20493;-88
2022/10/21 10:51:24;;;;;;;15.05;10.48;;;15.70;99.90;;;;;;5025460;28;20068;-85
2022/10/21 10:54:00;;;;;;;16.75;10.95;;;15.20;99.90;;;;;;5023985;28;20496;-87
2022/10/21 10:56:43;;;;;;;16.92;10.27;;;15.30;99.90;;;;;;5025247;28;20100;-88
2022/10/21 10:59:15;;;;;;;16.33;10.25;;;15.30;99.90;;;;;;5011050;28;20092;-87
2022/10/21 11:02:09;;;;;;;14.88;10.23;;;15.30;99.90;;;;;;5003877;28;20488;-86
2022/10/21 11:04:55;;;;;;;16.27;9.15;;;15.30;99.90;;;;;;5011990;28;20045;-88
2022/10/21 11:07:26;;;;;;;19.38;10.32;;;15.30;99.90;;;;;;5010429;28;20127;-88
2022/10/21 11:09:57;;;;;;;15.43;9.50;;;15.30;99.90;;;;;;5030006;28;20473;-87
2022/10/21 11:12:25;;;;;;;15.73;8.73;;;15.30;99.90;;;;;;5011684;28;20037;-86
2022/10/21 11:14:53;;;;;;;14.82;8.85;;;15.40;99.90;;;;;;5010620;28;20489;-88
2022/10/21 11:17:21;;;;;;;12.65;9.50;;;15.30;99.90;;;;;;5011022;28;20037;-86
2022/10/21 11:19:55;;;;;;;17.42;9.48;;;16.10;99.90;;;;;;4995141;28;20041;-85
2022/10/21 11:22:36;;;;;;;10.45;8.35;;;16.10;99.90;;;;;;5028924;28;20044;-85
2022/10/21 11:25:08;;;;;;;15.98;8.55;;;15.30;99.90;;;;;;5011017;28;20046;-82
2022/10/21 11:27:39;;;;;;;15.13;9.23;;;15.40;99.90;;;;;;4995328;28;20247;-81
2022/10/21 11:30:21;;;;;;;16.35;8.30;;;15.40;99.90;;;;;;5011173;28;20499;-81
2022/10/21 11:32:52;;;;;;;14.15;8.23;;;15.40;99.90;;;;;;5003428;28;20041;-86
2022/10/21 11:35:40;;;;;;;13.13;8.07;;;15.40;99.90;;;;;;5007189;28;20088;-86
2022/10/21 11:38:18;;;;;;;14.15;9.15;;;15.90;99.90;;;;;;5011382;28;20116;-87
2022/10/21 11:41:01;;;;;;;14.30;8.18;;;15.50;99.90;;;;;;5021175;28;20583;-86
2022/10/21 11:43:33;;;;;;;14.20;8.25;;;15.50;99.90;;;;;;4993581;28;20041;-86
2022/10/21 11:46:11;;;;;;;10.43;7.68;;;16.00;99.90;;;;;;5010975;28;20045;-86
2022/10/21 11:48:57;;;;;;;15.48;7.95;;;15.50;99.90;;;;;;4994440;28;20056;-84
2022/10/21 11:51:42;;;;;;;11.95;8.40;;;15.60;99.90;;;;;;4993718;28;20055;-86
2022/10/21 11:54:49;;;;;;;10.50;7.70;;;15.60;99.90;;;;;;5010069;28;20422;-86
2022/10/21 11:57:32;;;;;;;10.85;7.20;;;15.50;99.90;;;;;;5007240;28;20660;-87
2022/10/21 12:00:18;;;;;;;13.20;8.30;;;15.50;99.90;;;;;;5022604;28;20038;-86
2022/10/21 12:03:02;;;;;;;9.93;7.85;;;15.60;99.90;;;;;;5010351;28;20257;-86
2022/10/21 12:05:33;;;;;;;13.88;8.73;;;15.60;99.90;;;;;;5007929;28;20164;-83
2022/10/21 12:08:26;;;;;;;12.77;7.85;;;16.70;99.90;;;;;;5020158;28;20045;-85
2022/10/21 12:11:11;;;;;;;10.77;7.78;;;15.70;99.90;;;;;;5019773;28;20045;-85
2022/10/21 12:13:49;;;;;;;12.38;8.50;;;15.70;99.90;;;;;;5027640;28;20037;-86
2022/10/21 12:16:23;;;;;;;10.80;7.72;;;15.70;99.90;;;;;;5027138;28;20086;-85
2022/10/21 12:18:55;;;;;;;15.75;8.45;;;15.70;99.90;;;;;;4985532;28;20060;-87
2022/10/21 12:21:26;;;;;;;8.98;8.07;;;15.70;99.90;;;;;;5010476;28;20062;-85
2022/10/21 12:24:18;;;;;;;14.90;7.30;;;16.00;99.90;;;;;;4998838;28;20049;-87
2022/10/21 12:27:01;;;;;;;10.77;6.97;;;15.70;99.90;;;;;;4992939;28;20061;-86
2022/10/21 12:29:54;;;;;;;15.10;6.75;;;15.70;99.90;;;;;;5010835;28;20045;-82
2022/10/21 12:32:44;;;;;;;14.27;7.05;;;15.70;99.90;;;;;;5006369;28;20392;-86
2022/10/21 12:35:19;;;;;;;16.27;6.93;;;15.70;99.90;;;;;;5007380;28;20103;-86
2022/10/21 12:38:17;;;;;;;11.73;6.63;;;15.70;99.90;;;;;;5008731;28;20088;-84
2022/10/21 12:40:42;;;;;;;13.43;7.55;;;15.70;99.90;;;;;;5027020;28;20075;-85
2022/10/21 12:43:38;;;;;;;10.95;6.47;;;15.70;99.90;;;;;;5027970;28;20520;-83
2022/10/21 12:46:07;;;;;;;9.82;6.55;;;16.70;99.90;;;;;;5008063;28;20049;-83
2022/10/21 12:48:42;;;;;;;12.23;6.25;;;15.70;99.90;;;;;;5019220;28;20091;-85